Time;durP1;ratioP1;P1;durP2;ratioP2;P2;SDS_P1;SDS_P2;PMS_P1;PMS_P2;Temp;Humidity;BMP_temperature;BMP_pressure;BME280_temperature;BME280_humidity;BME280_pressure;Samples;Min_cycle;Max_cycle;Signal;HPM_P1;HPM_P2
2022/11/23 00:01:33;;;;;;;10.68;1.85;;;8.20;99.90;;;-144.05;74.93;125687.94;5033391;28;20025;-76
2022/11/23 00:04:11;;;;;;;6.40;1.40;;;8.20;99.90;;;-144.05;74.11;125687.94;5031595;28;20096;-77
2022/11/23 00:06:38;;;;;;;4.93;1.33;;;8.20;99.90;;;-144.05;74.85;125687.94;5048438;28;20055;-76
2022/11/23 00:09:05;;;;;;;8.15;1.63;;;8.10;99.90;;;-144.05;74.41;125687.94;5032110;28;20204;-76
2022/11/23 00:11:34;;;;;;;5.65;1.30;;;8.10;99.90;;;-144.05;74.07;125687.94;5031000;28;20036;-75
2022/11/23 00:14:00;;;;;;;4.97;1.85;;;8.20;99.90;;;-144.05;74.19;125687.94;5046970;28;20033;-78
2022/11/23 00:16:29;;;;;;;11.30;1.50;;;8.20;99.90;;;-144.05;74.28;125687.94;5031621;28;20061;-75
2022/11/23 00:18:59;;;;;;;6.15;1.30;;;8.20;99.90;;;-144.05;74.54;125687.94;5031416;28;20029;-74
2022/11/23 00:21:31;;;;;;;7.05;1.48;;;8.20;99.90;;;-144.05;73.77;125687.94;5032003;28;20040;-75
2022/11/23 00:23:57;;;;;;;9.52;1.45;;;8.30;99.90;;;-144.05;73.07;125687.94;5032635;28;20052;-75
2022/11/23 00:26:24;;;;;;;6.63;1.38;;;8.30;99.90;;;-144.05;73.00;125687.94;5032263;28;20025;-76
2022/11/23 00:28:50;;;;;;;5.43;1.50;;;8.30;99.90;;;-144.05;72.83;125687.94;5032635;28;20392;-77
2022/11/23 00:31:20;;;;;;;8.88;1.58;;;8.40;99.90;;;-144.05;73.11;125687.94;5031947;28;20029;-77
2022/11/23 00:33:52;;;;;;;9.32;1.77;;;8.40;99.90;;;-144.05;72.68;125687.94;5030098;28;20044;-76
2022/11/23 00:36:20;;;;;;;4.00;1.30;;;8.40;99.90;;;-144.05;72.23;125687.94;5029731;28;20030;-75
2022/11/23 00:38:48;;;;;;;4.75;1.13;;;8.30;99.90;;;-144.05;72.39;125687.94;5029748;28;20519;-76
2022/11/23 00:41:23;;;;;;;6.63;1.85;;;8.40;99.90;;;-144.05;72.40;125687.94;5031236;28;20109;-77
2022/11/23 00:43:49;;;;;;;4.63;1.30;;;8.40;99.90;;;-144.05;71.62;125687.94;5031273;28;20026;-76
2022/11/23 00:46:28;;;;;;;3.75;0.85;;;8.40;99.90;;;-144.05;71.13;125687.94;5031210;28;20068;-77
2022/11/23 00:48:56;;;;;;;5.50;1.45;;;8.40;99.90;;;-144.05;71.61;125687.94;5031262;28;20103;-76
2022/11/23 00:51:30;;;;;;;8.02;1.40;;;8.40;99.90;;;-144.05;71.77;125687.94;5030351;28;20056;-77
2022/11/23 00:53:58;;;;;;;6.03;1.60;;;8.50;99.90;;;-144.05;71.01;125687.94;5036854;28;20072;-77
2022/11/23 00:56:26;;;;;;;5.93;1.50;;;8.50;99.90;;;-144.05;71.25;125687.94;5037233;28;20038;-75
2022/11/23 00:58:56;;;;;;;5.78;1.10;;;8.50;99.90;;;-144.05;71.00;125687.94;5031664;28;20064;-77
2022/11/23 01:01:32;;;;;;;5.38;1.40;;;8.50;99.90;;;-144.05;71.12;125687.94;5033303;28;20481;-78
2022/11/23 01:04:02;;;;;;;7.32;1.38;;;8.50;99.90;;;-144.05;71.12;125687.94;5032426;28;20048;-77
2022/11/23 01:06:36;;;;;;;8.98;1.30;;;8.50;99.90;;;-144.05;71.80;125687.94;5033322;28;20060;-77
2022/11/23 01:09:13;;;;;;;5.32;1.15;;;8.50;99.90;;;-144.05;71.70;125687.94;5031938;28;20045;-75
2022/11/23 01:11:39;;;;;;;5.00;1.40;;;8.50;99.90;;;-144.05;70.71;125687.94;5048389;28;20029;-76
2022/11/23 01:14:06;;;;;;;4.28;1.50;;;8.50;99.90;;;-144.05;70.14;125687.94;5031379;28;20052;-77
2022/11/23 01:16:38;;;;;;;5.40;1.42;;;8.50;99.90;;;-144.05;70.00;125687.94;5033130;28;20071;-77
2022/11/23 01:19:10;;;;;;;4.35;1.45;;;8.60;99.90;;;-144.05;70.91;125687.94;5033460;28;20033;-77
2022/11/23 01:21:37;;;;;;;3.42;1.13;;;8.60;99.90;;;-144.05;70.99;125687.94;5034379;28;20025;-78
2022/11/23 01:24:07;;;;;;;6.45;1.08;;;8.70;99.90;;;-144.05;70.29;125687.94;5035101;28;20037;-77
2022/11/23 01:26:34;;;;;;;4.30;1.10;;;8.60;99.90;;;-144.05;70.68;125687.94;5034667;28;20172;-77
2022/11/23 01:29:00;;;;;;;8.10;1.17;;;8.60;99.90;;;-144.05;70.41;125687.94;5034724;28;20143;-78
2022/11/23 01:31:26;;;;;;;5.88;1.75;;;8.60;99.90;;;-144.05;70.66;125687.94;5035904;28;20400;-75
2022/11/23 01:33:55;;;;;;;4.95;0.90;;;8.70;99.90;;;-144.05;70.35;125687.94;5035137;28;20044;-76
2022/11/23 01:36:27;;;;;;;6.35;1.55;;;8.70;99.90;;;-144.05;70.62;125687.94;5034721;28;20129;-74
2022/11/23 01:38:54;;;;;;;3.65;1.20;;;8.60;99.90;;;-144.05;71.24;125687.94;5033566;28;20029;-77
2022/11/23 01:41:25;;;;;;;5.70;1.02;;;8.60;99.90;;;-144.05;70.75;125687.94;5035116;28;20029;-78
2022/11/23 01:43:52;;;;;;;5.45;1.17;;;8.60;99.90;;;-144.05;71.08;125687.94;5035490;28;20469;-78
2022/11/23 01:46:20;;;;;;;4.45;1.30;;;8.60;99.90;;;-144.05;72.00;125687.94;5035246;28;20052;-78
2022/11/23 01:49:05;;;;;;;2.88;0.85;;;8.60;99.90;;;-144.05;73.12;125687.94;5035667;28;20048;-78
2022/11/23 01:51:44;;;;;;;4.85;1.10;;;8.60;99.90;;;-144.05;74.26;125687.94;5034848;28;20033;-77
2022/11/23 01:54:25;;;;;;;5.78;1.27;;;8.50;99.90;;;-144.05;74.16;125687.94;5034372;28;20041;-78
2022/11/23 01:57:11;;;;;;;7.03;1.33;;;8.40;99.90;;;-144.05;75.31;125687.94;5035977;28;20037;-79
2022/11/23 01:59:37;;;;;;;7.03;1.70;;;8.30;99.90;;;-144.05;75.75;125687.94;5035175;28;20049;-76
2022/11/23 02:02:05;;;;;;;6.28;1.48;;;8.30;99.90;;;-144.05;76.15;125687.94;5035059;28;20041;-78
2022/11/23 02:04:39;;;;;;;3.72;1.25;;;8.30;99.90;;;-144.05;75.90;125687.94;5034977;28;20404;-76
2022/11/23 02:07:07;;;;;;;6.93;1.90;;;8.20;99.90;;;-144.05;76.30;125687.94;5034703;28;20075;-76
2022/11/23 02:09:35;;;;;;;5.63;1.20;;;8.20;99.90;;;-144.05;76.47;125687.94;5034943;28;20055;-76
2022/11/23 02:12:00;;;;;;;6.75;1.33;;;8.20;99.90;;;-144.05;76.35;125687.94;5033448;28;20388;-77
2022/11/23 02:14:28;;;;;;;6.78;1.38;;;8.10;99.90;;;-144.05;76.72;125687.94;5049558;28;20041;-76
2022/11/23 02:16:58;;;;;;;5.35;1.50;;;8.10;99.90;;;-144.05;76.46;125687.94;5034746;28;20096;-76
2022/11/23 02:19:46;;;;;;;8.13;1.13;;;8.10;99.90;;;-144.05;76.17;125687.94;5034351;28;20136;-77
2022/11/23 02:22:32;;;;;;;6.88;2.08;;;8.10;99.90;;;-144.05;76.20;125687.94;5053835;28;20053;-76
2022/11/23 02:25:07;;;;;;;4.60;1.08;;;8.20;99.90;;;-144.05;75.64;125687.94;5033735;28;20488;-75
2022/11/23 02:27:33;;;;;;;4.53;0.98;;;8.20;99.90;;;-144.05;75.64;125687.94;5033602;28;20068;-76
2022/11/23 02:30:02;;;;;;;6.90;1.20;;;8.20;99.90;;;-144.05;75.22;125687.94;5031987;28;20052;-75
2022/11/23 02:32:29;;;;;;;8.13;1.60;;;8.30;99.90;;;-144.05;75.05;125687.94;5032774;28;20045;-75
2022/11/23 02:34:55;;;;;;;4.53;1.30;;;8.30;99.90;;;-144.05;74.30;125687.94;5032387;28;20026;-79
2022/11/23 02:37:21;;;;;;;4.80;1.00;;;8.40;99.90;;;-144.05;74.58;125687.94;5033732;28;20061;-75
2022/11/23 02:39:52;;;;;;;4.18;1.08;;;8.30;99.90;;;-144.05;75.30;125687.94;5048422;28;20025;-74
2022/11/23 02:42:18;;;;;;;5.25;1.55;;;8.30;99.90;;;-144.05;74.66;125687.94;5032946;28;20029;-76
2022/11/23 02:45:27;;;;;;;5.15;1.27;;;8.40;99.90;;;-144.05;74.92;125687.94;5033310;28;20367;-75
2022/11/23 02:47:53;;;;;;;6.03;1.15;;;8.40;99.90;;;-144.05;74.94;125687.94;5049392;28;20025;-77
2022/11/23 02:50:19;;;;;;;7.07;1.60;;;8.40;99.90;;;-144.05;74.39;125687.94;5032070;28;20022;-77
2022/11/23 02:52:45;;;;;;;5.78;1.10;;;8.40;99.90;;;-144.05;74.50;125687.94;5049025;28;20038;-75
2022/11/23 02:55:11;;;;;;;5.03;1.23;;;8.40;99.90;;;-144.05;73.85;125687.94;5049404;28;20055;-77
2022/11/23 02:57:37;;;;;;;5.93;1.45;;;8.40;99.90;;;-144.05;73.28;125687.94;5033635;28;20057;-77
2022/11/23 03:00:05;;;;;;;7.10;1.27;;;8.40;99.90;;;-144.05;73.41;125687.94;5048376;28;20116;-76
2022/11/23 03:02:30;;;;;;;5.93;1.08;;;8.50;99.90;;;-144.05;73.63;125687.94;5032908;28;20063;-76
2022/11/23 03:04:56;;;;;;;5.97;1.63;;;8.50;99.90;;;-144.05;73.54;125687.94;5032949;28;20036;-76
2022/11/23 03:07:22;;;;;;;4.25;1.10;;;8.50;99.90;;;-144.05;73.15;125687.94;5032647;28;20033;-76
2022/11/23 03:09:48;;;;;;;8.15;1.85;;;8.60;99.90;;;-144.05;73.42;125687.94;5047823;28;20489;-77
2022/11/23 03:12:15;;;;;;;6.88;1.73;;;8.50;99.90;;;-144.05;73.37;125687.94;5048127;28;20117;-76
2022/11/23 03:14:41;;;;;;;3.63;1.10;;;8.50;99.90;;;-144.05;73.30;125687.94;5048224;28;20099;-76
2022/11/23 03:17:06;;;;;;;6.88;1.20;;;8.50;99.90;;;-144.05;73.20;125687.94;5031658;28;20436;-78
2022/11/23 03:19:32;;;;;;;3.42;0.90;;;8.50;99.90;;;-144.05;72.81;125687.94;5047986;28;20484;-77
2022/11/23 03:21:58;;;;;;;5.50;1.10;;;8.50;99.90;;;-144.05;72.93;125687.94;5048957;28;20033;-77
2022/11/23 03:24:24;;;;;;;4.55;0.90;;;8.50;99.90;;;-144.05;72.74;125687.94;5036093;28;20073;-77
2022/11/23 03:26:51;;;;;;;7.65;1.35;;;8.50;99.90;;;-144.05;73.45;125687.94;5036752;28;20036;-77
2022/11/23 03:29:17;;;;;;;6.25;1.45;;;8.50;99.90;;;-144.05;73.28;125687.94;5035224;28;20029;-77
2022/11/23 03:31:43;;;;;;;4.60;1.30;;;8.50;99.90;;;-144.05;73.38;125687.94;5034213;28;20507;-78
2022/11/23 03:34:10;;;;;;;6.63;1.45;;;8.40;99.90;;;-144.05;74.29;125687.94;5032846;28;20037;-76
2022/11/23 03:36:35;;;;;;;3.90;1.00;;;8.50;99.90;;;-144.05;73.55;125687.94;5033930;28;20085;-76
2022/11/23 03:39:01;;;;;;;5.75;1.02;;;8.50;99.90;;;-144.05;74.19;125687.94;5033621;28;20082;-77
2022/11/23 03:41:27;;;;;;;5.60;0.98;;;8.40;99.90;;;-144.05;74.33;125687.94;5033094;28;20032;-78
2022/11/23 03:43:53;;;;;;;4.35;1.52;;;8.40;99.90;;;-144.05;75.57;125687.94;5033902;28;20026;-76
2022/11/23 03:46:19;;;;;;;4.57;1.25;;;8.40;99.90;;;-144.05;76.22;125687.94;5032340;28;20034;-75
2022/11/23 03:48:45;;;;;;;5.85;1.30;;;8.40;99.90;;;-144.05;76.44;125687.94;5030770;28;20060;-74
2022/11/23 03:51:10;;;;;;;5.55;1.20;;;8.30;99.90;;;-144.05;77.01;125687.94;5032051;28;20076;-77
2022/11/23 03:53:36;;;;;;;4.82;1.00;;;8.30;99.90;;;-144.05;77.79;125687.94;5032319;28;20116;-77
2022/11/23 03:56:02;;;;;;;4.35;1.27;;;8.20;99.90;;;-144.05;78.77;125687.94;5000208;23;1294346;-80
2022/11/23 03:58:28;;;;;;;3.10;1.42;;;8.20;99.90;;;-144.05;78.88;125687.94;5020335;28;20044;-83
2022/11/23 04:00:54;;;;;;;7.60;1.30;;;8.20;99.90;;;-144.05;79.24;125687.94;5003762;28;20034;-82
2022/11/23 04:03:20;;;;;;;5.03;1.30;;;8.10;99.90;;;-144.05;79.47;125687.94;5023704;28;20026;-83
2022/11/23 04:05:46;;;;;;;6.68;1.45;;;8.00;99.90;;;-144.05;79.96;125687.94;5022970;28;20029;-82
2022/11/23 04:08:12;;;;;;;3.22;1.33;;;8.00;99.90;;;-144.05;80.07;125687.94;5024066;28;20082;-81
2022/11/23 04:10:37;;;;;;;7.47;1.20;;;8.00;99.90;;;-144.05;80.10;125687.94;5024709;28;20033;-80
2022/11/23 04:13:03;;;;;;;5.55;1.33;;;8.00;99.90;;;-144.05;80.66;125687.94;5024294;28;20030;-82
2022/11/23 04:15:29;;;;;;;6.10;1.02;;;7.90;99.90;;;-144.05;80.14;125687.94;5021718;28;20021;-82
2022/11/23 04:17:55;;;;;;;3.33;1.50;;;7.90;99.90;;;-144.05;80.17;125687.94;5021395;28;20055;-81
2022/11/23 04:20:21;;;;;;;3.78;1.30;;;7.90;99.90;;;-144.05;80.12;125687.94;5022343;28;20030;-80
2022/11/23 04:22:47;;;;;;;5.03;1.25;;;7.90;99.90;;;-144.05;80.47;125687.94;5022413;28;20041;-83
2022/11/23 04:25:12;;;;;;;5.50;1.15;;;8.00;99.90;;;-144.05;80.40;125687.94;5021835;28;20481;-81
2022/11/23 04:27:38;;;;;;;5.50;1.20;;;8.00;99.90;;;-144.05;80.05;125687.94;5020835;28;20084;-80
2022/11/23 04:30:06;;;;;;;2.55;0.93;;;7.90;99.90;;;-144.05;80.91;125687.94;5020862;28;20029;-82
2022/11/23 04:32:32;;;;;;;6.13;1.00;;;7.90;99.90;;;-144.05;81.24;125687.94;5023833;28;20026;-80
2022/11/23 04:34:58;;;;;;;5.70;1.08;;;8.00;99.90;;;-144.05;80.84;125687.94;5019872;28;20034;-79
2022/11/23 04:37:24;;;;;;;5.80;1.23;;;7.90;99.90;;;-144.05;81.78;125687.94;5021770;28;20022;-80
2022/11/23 04:39:50;;;;;;;4.97;1.85;;;7.90;99.90;;;-144.05;81.92;125687.94;5022981;28;20053;-82
2022/11/23 04:42:16;;;;;;;3.28;1.00;;;7.90;99.90;;;-144.05;81.50;125687.94;5022607;28;20037;-81
2022/11/23 04:44:41;;;;;;;4.22;1.10;;;7.90;99.90;;;-144.05;81.56;125687.94;5022040;28;20033;-82
2022/11/23 04:47:10;;;;;;;5.53;1.10;;;7.90;99.90;;;-144.05;81.25;125687.94;5022207;28;20037;-82
2022/11/23 04:49:36;;;;;;;3.17;0.93;;;7.80;99.90;;;-144.05;81.09;125687.94;5007052;28;20087;-81
2022/11/23 04:52:03;;;;;;;2.65;1.00;;;7.80;99.90;;;-144.05;81.47;125687.94;5004986;28;20037;-81
2022/11/23 04:54:29;;;;;;;6.65;1.13;;;7.80;99.90;;;-144.05;81.25;125687.94;5022520;28;20030;-79
2022/11/23 04:56:55;;;;;;;5.00;1.13;;;7.80;99.90;;;-144.05;81.46;125687.94;5007596;28;20100;-81
2022/11/23 04:59:21;;;;;;;3.70;1.05;;;7.90;99.90;;;-144.05;80.85;125687.94;5027679;28;20026;-81
2022/11/23 05:01:51;;;;;;;2.55;0.85;;;7.90;99.90;;;-144.05;80.67;125687.94;5006445;28;20473;-84
2022/11/23 05:04:18;;;;;;;2.95;1.02;;;7.90;99.90;;;-144.05;80.84;125687.94;5002624;28;20034;-83
2022/11/23 05:06:45;;;;;;;6.97;1.48;;;7.90;99.90;;;-144.05;80.22;125687.94;5021620;28;20030;-82
2022/11/23 05:09:11;;;;;;;7.18;1.50;;;7.90;99.90;;;-144.05;80.30;125687.94;5002579;28;20040;-81
2022/11/23 05:11:37;;;;;;;3.42;1.00;;;7.90;99.90;;;-144.05;80.49;125687.94;5021435;28;20029;-81
2022/11/23 05:14:03;;;;;;;3.15;1.40;;;7.90;99.90;;;-144.05;80.56;125687.94;5021269;28;20497;-81
2022/11/23 05:16:29;;;;;;;4.15;1.00;;;7.90;99.90;;;-144.05;81.02;125687.94;5022959;28;20026;-82
2022/11/23 05:18:55;;;;;;;4.45;0.95;;;7.80;99.90;;;-144.05;80.67;125687.94;5035339;28;20037;-80
2022/11/23 05:21:21;;;;;;;5.30;1.38;;;7.90;99.90;;;-144.05;80.54;125687.94;5036864;28;20030;-80
2022/11/23 05:23:47;;;;;;;4.82;1.27;;;7.80;99.90;;;-144.05;80.77;125687.94;5033618;28;20448;-82
2022/11/23 05:26:13;;;;;;;2.97;0.80;;;7.90;99.90;;;-144.05;80.44;125687.94;5002038;28;20092;-83
2022/11/23 05:28:38;;;;;;;4.28;1.13;;;7.90;99.90;;;-144.05;80.72;125687.94;5021580;28;20069;-82
2022/11/23 05:31:04;;;;;;;4.38;1.10;;;7.80;99.90;;;-144.05;80.14;125687.94;5021334;28;20045;-82
2022/11/23 05:33:30;;;;;;;7.50;1.23;;;7.80;99.90;;;-144.05;80.19;125687.94;5003230;28;20034;-81
2022/11/23 05:35:56;;;;;;;7.25;1.38;;;7.90;99.90;;;-144.05;80.32;125687.94;5023975;28;20037;-83
2022/11/23 05:38:22;;;;;;;8.10;1.40;;;7.80;99.90;;;-144.05;80.01;125687.94;5024427;28;20101;-83
2022/11/23 05:40:48;;;;;;;7.20;1.20;;;7.80;99.90;;;-144.05;79.50;125687.94;5024363;28;20058;-80
2022/11/23 05:43:14;;;;;;;5.97;1.33;;;7.90;99.90;;;-144.05;79.45;125687.94;5026458;28;20038;-81
2022/11/23 05:45:39;;;;;;;4.30;1.23;;;7.90;99.90;;;-144.05;78.77;125687.94;5026614;28;20058;-83
2022/11/23 05:48:05;;;;;;;6.38;1.27;;;7.90;99.90;;;-144.05;78.88;125687.94;5025099;28;20044;-83
2022/11/23 05:50:31;;;;;;;9.77;1.48;;;8.00;99.90;;;-144.05;78.15;125687.94;5024992;28;20522;-85
2022/11/23 05:52:58;;;;;;;6.95;1.98;;;8.00;99.90;;;-144.05;77.81;125687.94;5009049;28;20520;-83
2022/11/23 05:55:26;;;;;;;3.40;1.20;;;8.00;99.90;;;-144.05;77.54;125687.94;5027414;28;20030;-82
2022/11/23 05:57:52;;;;;;;3.97;1.05;;;8.10;99.90;;;-144.05;77.51;125687.94;5028599;28;20026;-83
2022/11/23 06:00:19;;;;;;;9.80;1.38;;;8.10;99.90;;;-144.05;77.83;125687.94;5028666;28;20030;-83
2022/11/23 06:02:45;;;;;;;10.55;1.77;;;8.00;99.90;;;-144.05;77.50;125687.94;5026616;28;20456;-83
2022/11/23 06:05:11;;;;;;;8.93;1.50;;;8.00;99.90;;;-144.05;77.32;125687.94;5026663;28;20029;-83
2022/11/23 06:07:37;;;;;;;8.10;1.42;;;8.00;99.90;;;-144.05;77.31;125687.94;5024343;28;20029;-81
2022/11/23 06:10:06;;;;;;;6.40;1.35;;;8.00;99.90;;;-144.05;76.70;125687.94;5030474;28;20025;-82
2022/11/23 06:12:32;;;;;;;5.75;1.70;;;8.00;99.90;;;-144.05;77.11;125687.94;5028480;28;20089;-82
2022/11/23 06:14:58;;;;;;;8.63;1.55;;;8.10;99.90;;;-144.05;76.32;125687.94;5028739;28;20033;-83
2022/11/23 06:17:24;;;;;;;9.45;1.35;;;8.10;99.90;;;-144.05;75.97;125687.94;5029073;28;20030;-83
2022/11/23 06:19:50;;;;;;;6.75;1.30;;;8.10;99.90;;;-144.05;76.30;125687.94;5030081;28;20038;-82
2022/11/23 06:22:16;;;;;;;6.20;1.35;;;8.10;99.90;;;-144.05;75.57;125687.94;5029348;28;20025;-83
2022/11/23 06:24:42;;;;;;;12.05;1.70;;;8.10;99.90;;;-144.05;75.98;125687.94;5030802;28;20030;-82
2022/11/23 06:27:09;;;;;;;6.95;1.20;;;8.20;99.90;;;-144.05;75.22;125687.94;5030152;28;20125;-81
2022/11/23 06:29:35;;;;;;;8.18;1.33;;;8.20;99.90;;;-144.05;75.34;125687.94;5029972;28;20034;-83
2022/11/23 06:32:00;;;;;;;5.80;1.65;;;8.10;99.90;;;-144.05;76.20;125687.94;5029084;28;20045;-83
2022/11/23 06:34:26;;;;;;;6.47;1.45;;;8.10;99.90;;;-144.05;76.05;125687.94;5029215;28;20037;-85
2022/11/23 06:36:52;;;;;;;5.72;1.52;;;8.10;99.90;;;-144.05;75.58;125687.94;5028248;28;20026;-82
2022/11/23 06:39:18;;;;;;;7.18;1.48;;;8.10;99.90;;;-144.05;75.79;125687.94;5027870;28;20030;-82
2022/11/23 06:41:44;;;;;;;6.43;1.00;;;8.20;99.90;;;-144.05;76.23;125687.94;5026696;28;20030;-79
2022/11/23 06:44:09;;;;;;;3.95;1.45;;;8.20;99.90;;;-144.05;76.33;125687.94;5024202;28;20034;-82
2022/11/23 06:46:35;;;;;;;6.10;1.30;;;8.10;99.90;;;-144.05;77.06;125687.94;5021819;28;20025;-79
2022/11/23 06:49:01;;;;;;;7.70;1.15;;;8.10;99.90;;;-144.05;77.01;125687.94;5015502;28;20046;-82
2022/11/23 06:51:27;;;;;;;5.30;1.58;;;8.10;99.90;;;-144.05;77.08;125687.94;5000432;28;20090;-77
2022/11/23 06:53:53;;;;;;;7.72;1.40;;;8.10;99.90;;;-144.05;77.11;125687.94;5004957;28;20118;-83
2022/11/23 06:56:19;;;;;;;5.32;1.50;;;8.10;99.90;;;-144.05;76.93;125687.94;5019143;28;20135;-85
2022/11/23 06:58:44;;;;;;;7.22;1.23;;;8.10;99.90;;;-144.05;77.73;125687.94;5000794;28;20034;-84
2022/11/23 07:01:11;;;;;;;5.15;1.25;;;8.10;99.90;;;-144.05;77.71;125687.94;5020489;28;20045;-81
2022/11/23 07:03:37;;;;;;;8.40;1.92;;;8.10;99.90;;;-144.05;77.55;125687.94;5021099;28;20049;-82
2022/11/23 07:06:09;;;;;;;5.63;1.33;;;8.10;99.90;;;-144.05;77.05;125687.94;5018883;28;20030;-81
2022/11/23 07:08:42;;;;;;;4.88;1.48;;;8.10;99.90;;;-144.05;77.17;125687.94;5018304;28;20467;-85
2022/11/23 07:11:10;;;;;;;7.80;1.50;;;8.20;99.90;;;-144.05;76.74;125687.94;5002776;28;20033;-80
2022/11/23 07:13:38;;;;;;;6.15;1.55;;;8.10;99.90;;;-144.05;77.07;125687.94;5002317;28;20041;-83
2022/11/23 07:16:05;;;;;;;7.70;1.75;;;8.10;99.90;;;-144.05;76.91;125687.94;5018255;28;20048;-79
2022/11/23 07:18:31;;;;;;;2.67;1.00;;;8.20;99.90;;;-144.05;76.55;125687.94;5020731;28;20026;-81
2022/11/23 07:20:58;;;;;;;5.07;1.30;;;8.20;99.90;;;-144.05;76.44;125687.94;5020218;28;20528;-81
2022/11/23 07:23:25;;;;;;;6.60;1.67;;;8.10;99.90;;;-144.05;76.34;125687.94;5020621;28;20493;-82
2022/11/23 07:25:52;;;;;;;7.70;1.50;;;8.20;99.90;;;-144.05;76.00;125687.94;4988759;28;20125;-78
2022/11/23 07:28:18;;;;;;;4.15;1.23;;;8.20;99.90;;;-144.05;75.65;125687.94;5002837;28;20096;-79
2022/11/23 07:30:44;;;;;;;6.50;1.30;;;8.30;99.90;;;-144.05;75.20;125687.94;5018251;28;20478;-81
2022/11/23 07:33:12;;;;;;;6.00;1.25;;;8.30;99.90;;;-144.05;74.38;125687.94;5018724;28;20087;-82
2022/11/23 07:35:40;;;;;;;7.63;1.65;;;8.30;99.90;;;-144.05;73.74;125687.94;5017588;28;20069;-81
2022/11/23 07:38:07;;;;;;;4.22;1.52;;;8.40;99.90;;;-144.05;74.84;125687.94;5019036;28;20022;-80
2022/11/23 07:40:37;;;;;;;5.38;1.40;;;8.40;99.90;;;-144.05;73.82;125687.94;5017375;28;20049;-81
2022/11/23 07:43:06;;;;;;;6.00;1.30;;;8.40;99.90;;;-144.05;73.27;125687.94;5015625;28;20037;-81
2022/11/23 07:45:33;;;;;;;5.80;1.08;;;8.50;99.90;;;-144.05;73.20;125687.94;5019518;28;20044;-80
2022/11/23 07:48:17;;;;;;;6.32;1.13;;;8.50;99.90;;;-144.05;72.93;125687.94;5017465;28;20058;-82
2022/11/23 07:50:42;;;;;;;5.28;1.40;;;8.50;99.90;;;-144.05;72.71;125687.94;5016839;28;20044;-80
2022/11/23 07:53:09;;;;;;;9.05;1.40;;;8.50;99.90;;;-144.05;71.96;125687.94;4999278;28;20026;-82
2022/11/23 07:55:35;;;;;;;4.10;1.30;;;8.50;99.90;;;-144.05;71.92;125687.94;5017227;28;20129;-80
2022/11/23 07:58:01;;;;;;;7.05;2.05;;;8.50;99.90;;;-144.05;71.18;125687.94;5014661;28;20030;-82
2022/11/23 08:00:28;;;;;;;8.88;1.40;;;8.50;99.90;;;-144.05;71.16;125687.94;5016489;28;20421;-80
2022/11/23 08:02:57;;;;;;;4.85;1.25;;;8.60;99.90;;;-144.05;70.59;125687.94;5016918;28;20554;-79
2022/11/23 08:05:25;;;;;;;3.80;1.23;;;8.70;99.90;;;-144.05;70.35;125687.94;5016115;28;20396;-80
2022/11/23 08:07:58;;;;;;;7.97;1.30;;;8.90;99.90;;;-144.05;68.71;125687.94;5016905;28;20043;-79
2022/11/23 08:10:27;;;;;;;7.25;1.85;;;9.10;99.90;;;-144.05;68.29;125687.94;5000796;28;20087;-81
2022/11/23 08:12:59;;;;;;;7.35;2.15;;;9.20;99.90;;;-144.05;68.01;125687.94;5013803;28;20065;-81
2022/11/23 08:15:28;;;;;;;7.78;1.20;;;9.20;99.90;;;-144.05;67.41;125687.94;5016077;28;20109;-81
2022/11/23 08:18:01;;;;;;;10.50;1.50;;;9.20;99.90;;;-144.05;66.39;125687.94;5016631;28;20022;-80
2022/11/23 08:20:30;;;;;;;7.97;1.08;;;9.40;99.90;;;-144.05;66.44;125687.94;4997647;28;20026;-79
2022/11/23 08:22:56;;;;;;;8.48;1.65;;;9.60;99.90;;;-144.05;65.41;125687.94;5018224;28;20041;-81
2022/11/23 08:25:28;;;;;;;5.75;1.40;;;9.80;99.90;;;-144.05;63.77;125687.94;5015440;28;20034;-81
2022/11/23 08:28:02;;;;;;;5.25;1.17;;;9.90;99.90;;;-144.05;64.91;125687.94;5017905;28;20040;-80
2022/11/23 08:30:31;;;;;;;8.48;1.20;;;9.80;99.90;;;-144.05;65.16;125687.94;5017996;28;20026;-81
2022/11/23 08:32:57;;;;;;;6.15;1.15;;;9.80;99.90;;;-144.05;63.18;125687.94;5016650;28;20048;-80
2022/11/23 08:35:23;;;;;;;9.05;2.20;;;10.00;99.90;;;-144.05;63.05;125687.94;5016865;28;20025;-80
2022/11/23 08:37:49;;;;;;;6.57;1.05;;;10.20;99.90;;;-144.05;61.79;125687.94;5015650;28;20040;-78
2022/11/23 08:40:15;;;;;;;9.48;1.67;;;10.10;99.90;;;-144.05;61.55;125687.94;4997784;28;20025;-83
2022/11/23 08:42:41;;;;;;;8.07;1.90;;;10.20;99.90;;;-144.05;62.17;125687.94;5016118;28;20046;-81
2022/11/23 08:45:08;;;;;;;6.00;1.38;;;10.10;99.90;;;-144.05;62.04;125687.94;5015758;28;20018;-80
2022/11/23 08:47:34;;;;;;;8.13;1.38;;;10.30;99.90;;;-144.05;60.96;125687.94;5015772;28;20396;-80
2022/11/23 08:50:00;;;;;;;7.95;1.52;;;10.50;99.90;;;-144.05;60.21;125687.94;4997609;28;20026;-80
2022/11/23 08:52:26;;;;;;;8.70;1.35;;;10.60;99.90;;;-144.05;60.26;125687.94;5016170;28;20034;-82
2022/11/23 08:54:52;;;;;;;6.85;1.73;;;10.70;99.90;;;-144.05;59.13;125687.94;5014891;28;20462;-80
2022/11/23 08:57:18;;;;;;;6.72;1.35;;;10.80;99.90;;;-144.05;58.44;125687.94;5015677;28;20171;-79
2022/11/23 08:59:44;;;;;;;5.63;1.42;;;10.90;99.90;;;-144.05;58.41;125687.94;5015863;28;20410;-82
2022/11/23 09:02:13;;;;;;;6.85;1.52;;;11.00;99.90;;;-144.05;57.88;125687.94;5015859;28;20030;-77
2022/11/23 09:04:40;;;;;;;6.90;1.65;;;11.00;99.90;;;-144.05;57.71;125687.94;5016029;28;20030;-81
2022/11/23 09:07:07;;;;;;;11.77;1.98;;;11.10;99.90;;;-144.05;57.69;125687.94;5016603;28;20042;-81
2022/11/23 09:09:32;;;;;;;9.73;1.77;;;11.10;99.90;;;-144.05;57.61;125687.94;5015417;28;20029;-78
2022/11/23 09:11:58;;;;;;;8.45;1.63;;;11.10;99.90;;;-144.05;57.93;125687.94;5014797;28;20084;-79
2022/11/23 09:14:26;;;;;;;6.45;1.40;;;10.90;99.90;;;-144.05;57.92;125687.94;5014287;28;20041;-80
2022/11/23 09:16:55;;;;;;;9.02;1.85;;;10.90;99.90;;;-144.05;56.57;125687.94;5014344;28;20022;-77
2022/11/23 09:19:22;;;;;;;4.07;1.60;;;11.20;99.90;;;-144.05;55.48;125687.94;5012913;28;20088;-80
2022/11/23 09:21:48;;;;;;;7.38;1.50;;;11.40;99.90;;;-144.05;55.58;125687.94;5014883;28;20493;-80
2022/11/23 09:24:14;;;;;;;5.55;1.38;;;11.40;99.90;;;-144.05;55.79;125687.94;5015465;28;20033;-79
2022/11/23 09:26:40;;;;;;;9.30;2.00;;;11.30;99.90;;;-144.05;55.16;125687.94;5015492;28;20033;-82
2022/11/23 09:29:08;;;;;;;7.68;1.95;;;11.20;99.90;;;-144.05;55.07;125687.94;5014976;28;20071;-81
2022/11/23 09:31:35;;;;;;;5.82;1.30;;;11.20;99.90;;;-144.05;54.81;125687.94;4999710;28;20456;-79
2022/11/23 09:34:01;;;;;;;9.40;1.80;;;11.20;99.90;;;-144.05;54.58;125687.94;5020172;28;20014;-77
2022/11/23 09:36:27;;;;;;;6.78;1.98;;;11.10;99.90;;;-144.05;54.98;125687.94;5022484;28;20049;-78
2022/11/23 09:38:54;;;;;;;8.55;1.60;;;11.10;99.90;;;-144.05;56.12;125687.94;5019194;28;20036;-80
2022/11/23 09:41:44;;;;;;;5.75;1.17;;;11.20;99.90;;;-144.05;55.46;125687.94;5017892;28;20030;-80
2022/11/23 09:44:22;;;;;;;11.10;1.65;;;11.20;99.90;;;-144.05;54.91;125687.94;5020907;28;20497;-82
2022/11/23 09:47:12;;;;;;;9.80;1.98;;;11.10;99.90;;;-144.05;54.82;125687.94;5019429;28;20026;-79
2022/11/23 09:50:05;;;;;;;8.38;1.77;;;11.10;99.90;;;-144.05;54.61;125687.94;5001114;28;20037;-80
2022/11/23 09:52:32;;;;;;;5.97;1.38;;;11.20;99.90;;;-144.05;54.63;125687.94;5018304;28;20026;-80
2022/11/23 09:55:14;;;;;;;8.38;1.75;;;11.20;99.90;;;-144.05;54.34;125687.94;5041649;23;20050;-76
2022/11/23 09:57:45;;;;;;;8.15;1.67;;;11.20;99.90;;;-144.05;54.27;125687.94;5030131;28;20037;-75
2022/11/23 10:00:23;;;;;;;9.35;1.80;;;11.20;99.90;;;-144.05;54.90;125687.94;5017069;28;20374;-78
2022/11/23 10:02:49;;;;;;;7.38;2.05;;;11.20;99.90;;;-144.05;55.09;125687.94;5014847;28;20026;-77
2022/11/23 10:05:22;;;;;;;9.10;1.63;;;11.20;99.90;;;-144.05;54.93;125687.94;5017535;28;20109;-79
2022/11/23 10:08:16;;;;;;;7.38;1.52;;;11.30;99.90;;;-144.05;54.94;125687.94;5017713;28;20026;-75
2022/11/23 10:11:41;;;;;;;11.18;1.92;;;11.30;99.90;;;-144.05;55.01;125687.94;5017011;28;20029;-79